Latest Weather Observations for Renmark Airport

IDS60801

Issued at 3:31 pm CST Saturday 30 May 2015 (issued every 30 minutes, with the page automatically refreshed every 10 minutes)

About weather observations | Map of weather stations | Latest weather observations for SA | Other Formats
Station Details ID: 024048 Name: RENMARK AERO Lat: -34.20 Lon: 140.68 Height: 31.5 m
Data from the previous 72 hours. | See also: Recent months at Renmark Airport
Date/Time
CST
Temp
°C
App
Temp
°C
Dew
Point
Rel
Hum
%
Delta-T
°C
Wind Press
QNH
hPa
Press
MSL
hPa
Rain
since 9 am
mm
Dir
 
Spd
km/h
Gust
km/h
Spd
kts
Gust
kts
30/03:30pm 17.0 13.2 4.0 42 6.1 WSW 13 22 7 12 1020.3 1020.3 0.0
30/03:00pm 17.8 13.3 4.0 40 6.5 WSW 17 24 9 13 1020.1 1020.1 0.0
30/02:30pm 17.8 13.3 4.4 41 6.3 WSW 17 26 9 14 1020.3 1020.3 0.0
30/02:00pm 17.4 12.9 4.4 42 6.2 WSW 17 22 9 12 1020.3 1020.3 0.0
30/01:30pm 17.7 13.0 5.3 44 6.0 WNW 19 24 10 13 1020.5 1020.5 0.0
30/01:00pm 16.7 13.2 5.3 47 5.5 WSW 13 22 7 12 1020.9 1020.9 0.0
30/12:30pm 17.1 14.3 5.1 45 5.7 W 9 20 5 11 1021.5 1021.5 0.0
30/12:00pm 16.8 13.2 4.8 45 5.7 WSW 13 20 7 11 1022.2 1022.2 0.0
30/11:30am 16.6 13.1 5.3 47 5.4 W 13 20 7 11 1022.4 1022.4 0.0
30/11:00am 16.0 12.7 4.7 47 5.3 WSW 11 17 6 9 1023.1 1023.1 0.0
30/10:30am 15.3 12.7 6.3 55 4.3 WSW 9 17 5 9 1023.8 1023.8 0.0
30/10:00am 14.3 12.3 6.9 61 3.6 SW 7 11 4 6 1024.1 1024.1 0.0
30/09:30am 13.0 11.2 7.0 67 2.9 WSW 6 9 3 5 1024.3 1024.3 0.0
30/09:00am 11.8 10.1 7.7 76 2.0 SW 6 9 3 5 1024.2 1024.2 0.0
30/08:30am 10.7 9.1 7.9 83 1.3 SW 6 9 3 5 1024.2 1024.2 0.0
30/08:00am 8.9 7.3 8.0 94 0.4 W 6 9 3 5 1024.3 1024.3 0.0
30/07:30am 8.9 7.6 7.8 93 0.5 SW 4 6 2 3 1024.1 1024.1 0.0
30/07:00am 9.0 6.8 7.9 93 0.5 W 9 11 5 6 1024.1 1024.1 0.0
30/06:30am 9.3 7.7 7.9 91 0.7 WNW 6 7 3 4 1023.7 1023.7 0.0
30/06:00am 9.3 8.7 7.6 89 0.8 CALM 0 0 0 0 1023.5 1023.5 0.0
30/05:30am 9.1 7.3 8.0 93 0.5 WSW 7 9 4 5 1023.5 1023.5 0.0
30/05:00am 8.9 7.1 7.8 93 0.5 WSW 7 9 4 5 1023.0 1023.0 0.0
30/04:30am 8.1 6.1 7.3 95 0.4 WSW 7 9 4 5 1023.0 1023.0 0.0
30/04:00am 7.9 7.0 7.6 98 0.1 WSW 2 6 1 3 1022.8 1022.8 0.0
30/03:30am 7.4 6.0 7.3 99 0.0 SW 4 7 2 4 1023.1 1023.1 0.0
30/03:00am 7.3 6.2 7.0 98 0.1 WNW 2 7 1 4 1023.2 1023.2 0.0
30/02:30am 7.4 5.5 6.5 94 0.4 NW 6 7 3 4 1023.4 1023.4 0.0
30/02:00am 7.9 5.8 6.8 93 0.5 N 7 11 4 6 1023.4 1023.4 0.0
30/01:30am 7.3 5.4 6.6 95 0.3 SW 6 11 3 6 1023.5 1023.5 0.0
30/01:00am 6.5 3.8 5.5 93 0.4 WSW 9 9 5 5 1023.7 1023.7 0.0
30/12:30am 6.8 4.6 5.3 90 0.7 W 6 7 3 4 1023.7 1023.7 0.0
30/12:00am 7.8 5.6 6.1 89 0.8 WNW 7 9 4 5 1024.1 1024.1 0.0
 
Date/Time
CST
Temp
°C
App
Temp
°C
Dew
Point
Rel
Hum
%
Delta-T
°C
Wind Press
QNH
hPa
Press
MSL
hPa
Rain
since 9 am
mm
Dir
 
Spd
km/h
Gust
km/h
Spd
kts
Gust
kts
29/11:30pm 7.3 6.2 5.1 86 1.0 CALM 0 0 0 0 1024.1 1024.1 0.0
29/11:00pm 8.5 7.7 6.3 86 1.0 CALM 0 0 0 0 1024.2 1024.2 0.0
29/10:30pm 10.2 9.0 6.5 78 1.7 WSW 2 6 1 3 1024.5 1024.5 0.0
29/10:00pm 11.5 9.5 7.0 74 2.2 WNW 7 9 4 5 1024.6 1024.6 0.0
29/09:30pm 12.0 10.0 6.9 71 2.4 SW 7 9 4 5 1024.3 1024.3 0.0
29/09:00pm 12.2 10.2 6.9 70 2.5 W 7 7 4 4 1024.5 1024.5 0.0
29/08:30pm 12.3 10.5 7.0 70 2.5 W 6 7 3 4 1024.4 1024.4 0.0
29/08:00pm 12.4 10.2 7.7 73 2.3 NNW 9 11 5 6 1024.3 1024.3 0.0
29/07:30pm 11.6 9.9 7.7 77 1.9 W 6 7 3 4 1024.2 1024.2 0.0
29/07:00pm 11.3 9.5 7.0 75 2.1 W 6 7 3 4 1024.1 1024.1 0.0
29/06:30pm 11.7 10.8 6.2 69 2.6 CALM 0 7 0 4 1024.0 1024.0 0.0
29/06:00pm 13.2 11.1 6.5 64 3.2 W 7 7 4 4 1023.8 1023.8 0.0
29/05:30pm 14.6 12.6 6.9 60 3.7 NW 7 7 4 4 1023.4 1023.4 0.0
29/05:00pm 15.2 12.7 6.7 57 4.1 W 9 11 5 6 1023.5 1023.5 0.0
29/04:30pm 15.8 12.9 6.3 53 4.6 WSW 11 17 6 9 1023.3 1023.3 0.0
29/04:00pm 16.4 13.1 6.2 51 5.0 WSW 13 19 7 10 1023.3 1023.3 0.0
29/03:30pm 16.6 13.7 6.4 51 5.0 W 11 19 6 10 1023.3 1023.3 0.0
29/03:00pm 16.6 13.3 6.4 51 5.0 W 13 20 7 11 1023.5 1023.5 0.0
29/02:30pm 16.5 12.3 5.8 49 5.2 WSW 17 20 9 11 1023.3 1023.3 0.0
29/02:00pm 16.3 12.6 6.2 51 4.9 W 15 22 8 12 1023.4 1023.4 0.0
29/01:30pm 16.2 13.9 5.8 50 5.0 W 7 15 4 8 1023.6 1023.6 0.0
29/01:00pm 15.7 12.5 6.7 55 4.4 WSW 13 19 7 10 1024.1 1024.1 0.0
29/12:30pm 15.8 12.4 6.0 52 4.7 WSW 13 19 7 10 1024.1 1024.1 0.0
29/12:00pm 15.9 13.3 6.1 52 4.7 WSW 9 19 5 10 1024.3 1024.3 0.0
29/11:30am 15.7 13.3 7.0 56 4.3 S 9 13 5 7 1024.4 1024.4 0.0
29/11:00am 15.6 13.6 6.9 56 4.3 NW 7 9 4 5 1024.6 1024.6 0.0
29/10:30am 15.3 13.9 7.3 59 3.9 N 4 9 2 5 1025.0 1025.0 0.0
29/10:00am 14.6 13.6 9.0 69 2.9 NNW 4 7 2 4 1025.2 1025.2 0.0
29/09:30am 13.2 11.5 10.0 81 1.6 WNW 9 11 5 6 1025.2 1025.2 0.0
29/09:00am 12.1 11.0 10.7 91 0.7 W 7 9 4 5 1025.2 1025.2 0.0
29/08:30am 10.5 9.6 10.5 100 0.0 NW 6 7 3 4 1024.5 1024.5 0.0
29/08:00am 9.0 7.6 9.0 100 0.0 W 6 7 3 4 1024.2 1024.2 0.0
29/07:30am 8.1 6.3 8.1 100 0.0 W 7 9 4 5 1024.2 1024.2 0.0
29/07:00am 8.7 7.1 8.7 100 0.0 WSW 7 9 4 5 1023.9 1023.9 0.0
29/06:30am 10.4 9.2 10.4 100 0.0 W 7 9 4 5 1023.5 1023.5 0.0
29/06:00am 10.9 9.9 10.9 100 0.0 SW 7 9 4 5 1023.1 1023.1 0.0
29/05:30am 10.7 9.6 10.7 100 0.0 W 7 11 4 6 1023.1 1023.1 0.0
29/05:00am 10.6 9.1 10.6 100 0.0 WSW 9 13 5 7 1022.6 1022.6 0.0
29/04:30am 10.2 9.0 10.2 100 0.0 W 7 7 4 4 1022.6 1022.6 0.0
29/04:00am 10.1 8.5 10.1 100 0.0 W 9 11 5 6 1022.3 1022.3 0.0
29/03:30am 10.3 8.7 10.3 100 0.0 SW 9 11 5 6 1022.0 1022.0 0.0
29/03:00am 10.1 8.5 10.1 100 0.0 W 9 11 5 6 1021.9 1021.9 0.0
29/02:30am 10.0 8.7 10.0 100 0.0 W 7 9 4 5 1022.2 1022.2 0.0
29/02:00am 9.1 7.6 9.1 100 0.0 SW 7 11 4 6 1021.6 1021.6 0.0
29/01:30am 9.5 7.7 9.4 99 0.0 SW 9 11 5 6 1021.5 1021.5 0.0
29/01:00am 10.1 8.3 9.5 96 0.3 SSW 9 11 5 6 1021.8 1021.8 0.0
29/12:30am 10.2 8.3 9.1 93 0.5 WSW 9 13 5 7 1022.0 1022.0 0.0
29/12:00am 10.3 8.1 7.9 85 1.2 W 9 11 5 6 1022.1 1022.1 0.0
 
Date/Time
CST
Temp
°C
App
Temp
°C
Dew
Point
Rel
Hum
%
Delta-T
°C
Wind Press
QNH
hPa
Press
MSL
hPa
Rain
since 9 am
mm
Dir
 
Spd
km/h
Gust
km/h
Spd
kts
Gust
kts
28/11:30pm 11.1 8.2 8.1 82 1.5 W 13 15 7 8 1021.9 1021.9 0.0
28/11:00pm 10.9 8.6 7.6 80 1.6 WNW 9 11 5 6 1021.6 1021.6 0.0
28/10:30pm 11.3 8.6 7.4 77 1.9 W 11 13 6 7 1021.3 1021.3 0.0
28/10:00pm 11.7 9.3 7.0 73 2.2 WNW 9 11 5 6 1021.1 1021.1 0.0
28/09:30pm 11.9 8.7 6.8 71 2.4 W 13 15 7 8 1020.8 1020.8 0.0
28/09:00pm 11.8 8.6 6.7 71 2.4 NW 13 15 7 8 1020.5 1020.5 0.0
28/08:30pm 11.3 9.2 6.6 73 2.2 NNE 7 9 4 5 1020.5 1020.5 0.0
28/08:00pm 12.6 9.7 6.4 66 2.9 W 11 13 6 7 1020.1 1020.1 0.0
28/07:30pm 13.4 10.9 6.5 63 3.3 W 9 11 5 6 1019.6 1019.6 0.0
28/07:00pm 13.2 10.3 6.3 63 3.3 W 11 11 6 6 1019.2 1019.2 0.0
28/06:30pm 14.2 13.4 6.3 59 3.8 CALM 0 0 0 0 1019.0 1019.0 0.0
28/06:00pm 14.7 12.1 6.3 57 4.0 WNW 9 11 5 6 1018.6 1018.6 0.0
28/05:30pm 16.3 14.3 6.2 51 4.9 W 6 7 3 4 1018.3 1018.3 0.0
28/05:00pm 17.6 14.3 6.2 47 5.6 WNW 13 17 7 9 1018.0 1018.0 0.0
28/04:30pm 19.1 15.8 6.2 43 6.4 W 13 17 7 9 1017.9 1017.9 0.0
28/04:00pm 19.8 16.1 6.5 42 6.7 W 15 20 8 11 1017.7 1017.7 0.0
28/03:30pm 20.6 17.2 7.6 43 6.7 W 15 19 8 10 1017.6 1017.6 0.0
28/03:00pm 20.5 17.1 7.8 44 6.6 W 15 20 8 11 1017.6 1017.6 0.0
28/02:30pm 20.6 16.3 7.2 42 6.8 WSW 19 26 10 14 1017.6 1017.6 0.0
28/02:00pm 20.6 15.2 6.5 40 7.1 W 24 30 13 16 1017.7 1017.7 0.0
28/01:30pm 20.9 16.4 8.5 45 6.5 W 22 32 12 17 1018.1 1018.1 0.0
28/01:00pm 20.7 17.3 9.0 47 6.2 W 17 28 9 15 1018.1 1018.1 0.0
28/12:30pm 20.6 16.8 8.9 47 6.2 W 19 24 10 13 1018.5 1018.5 0.0
28/12:00pm 20.4 16.9 8.7 47 6.1 W 17 22 9 12 1018.7 1018.7 0.0
28/11:30am 19.7 17.3 8.7 49 5.7 WSW 11 15 6 8 1019.0 1019.0 0.0
28/11:00am 18.4 15.6 8.4 52 5.2 WSW 13 20 7 11 1019.7 1019.7 0.0
28/10:30am 17.7 16.0 8.3 54 4.8 WNW 7 13 4 7 1020.0 1020.0 0.0
28/10:00am 16.3 14.7 7.8 57 4.3 NW 6 9 3 5 1020.1 1020.1 0.0
28/09:30am 15.5 13.9 7.8 60 3.8 NW 6 9 3 5 1019.8 1019.8 0.0
28/09:00am 14.1 12.2 7.4 64 3.3 WNW 7 11 4 6 1019.8 1019.8 0.0
28/08:30am 13.0 12.0 7.2 68 2.8 W 2 7 1 4 1019.6 1019.6 0.0
28/08:00am 10.6 10.2 8.2 85 1.2 CALM 0 0 0 0 1019.4 1019.4 0.0
28/07:30am 10.1 8.3 7.3 83 1.3 WSW 6 7 3 4 1019.2 1019.2 0.0
28/07:00am 10.3 9.7 7.5 83 1.3 CALM 0 0 0 0 1018.9 1018.9 0.0
28/06:30am 10.4 8.5 7.5 82 1.4 NE 7 9 4 5 1018.6 1018.6 0.0
28/06:00am 10.1 8.8 7.5 84 1.2 NW 4 6 2 3 1018.6 1018.6 0.0
28/05:30am 10.0 9.2 6.5 79 1.6 CALM 0 0 0 0 1018.4 1018.4 0.0
28/05:00am 9.5 7.3 6.4 81 1.4 WSW 7 9 4 5 1018.2 1018.2 0.0
28/04:30am 8.0 5.5 6.6 91 0.6 W 9 13 5 7 1018.0 1018.0 0.0
28/04:00am 7.5 6.7 6.4 93 0.5 CALM 0 0 0 0 1017.9 1017.9 0.0
28/03:30am 6.9 5.8 5.2 89 0.7 CALM 0 0 0 0 1018.1 1018.1 0.0
28/03:00am 7.2 6.1 5.3 88 0.8 CALM 0 0 0 0 1018.0 1018.0 0.0
28/02:30am 6.9 5.9 5.7 92 0.5 CALM 0 0 0 0 1018.6 1018.6 0.0
28/02:00am 6.7 5.6 5.3 91 0.6 CALM 0 0 0 0 1018.6 1018.6 0.0
28/01:30am 6.7 5.7 5.5 92 0.5 CALM 0 0 0 0 1018.6 1018.6 0.0
28/01:00am 6.4 5.3 4.9 90 0.7 CALM 0 0 0 0 1018.8 1018.8 0.0
28/12:30am 7.0 4.8 5.5 90 0.7 WSW 6 7 3 4 1019.0 1019.0 0.0
28/12:00am 7.3 5.1 5.3 87 0.9 W 6 7 3 4 1019.2 1019.2 0.0
 
Date/Time
CST
Temp
°C
App
Temp
°C
Dew
Point
Rel
Hum
%
Delta-T
°C
Wind Press
QNH
hPa
Press
MSL
hPa
Rain
since 9 am
mm
Dir
 
Spd
km/h
Gust
km/h
Spd
kts
Gust
kts
27/11:30pm 8.0 7.0 5.8 86 1.0 CALM 0 0 0 0 1019.3 1019.3 0.0
27/11:00pm 9.3 8.4 6.2 81 1.4 CALM 0 0 0 0 1019.4 1019.4 0.0
27/10:30pm 8.7 6.7 6.2 84 1.1 W 6 7 3 4 1019.5 1019.5 0.0
27/10:00pm 9.6 8.8 6.5 81 1.4 CALM 0 0 0 0 1019.5 1019.5 0.0
27/09:30pm 10.2 8.7 6.7 79 1.6 WSW 4 6 2 3 1019.7 1019.7 0.0
27/09:00pm 9.7 8.2 6.6 81 1.4 WSW 4 9 2 5 1019.6 1019.6 0.0
27/08:30pm 10.4 9.7 7.1 80 1.6 CALM 0 0 0 0 1019.5 1019.5 0.0
27/08:00pm 10.9 10.2 7.0 77 1.9 CALM 0 0 0 0 1019.4 1019.4 0.0
27/07:30pm 11.7 11.1 7.2 74 2.2 CALM 0 0 0 0 1019.3 1019.3 0.0
27/07:00pm 12.6 12.0 7.5 71 2.5 CALM 0 0 0 0 1019.2 1019.2 0.0
27/06:30pm 13.7 13.1 7.5 66 3.0 CALM 0 0 0 0 1019.0 1019.0 0.0
27/06:00pm 15.7 15.2 7.7 59 4.0 CALM 0 0 0 0 1018.9 1018.9 0.0
27/05:30pm 17.6 17.1 7.9 53 4.9 CALM 0 0 0 0 1018.7 1018.7 0.0
27/05:00pm 20.6 19.7 7.6 43 6.7 WSW 2 6 1 3 1018.5 1018.5 0.0
27/04:30pm 20.9 18.7 7.9 43 6.7 WSW 9 11 5 6 1018.4 1018.4 0.0
27/04:00pm 21.3 17.8 7.2 40 7.2 WNW 15 20 8 11 1018.5 1018.5 0.0

Other Formats:

Comma delimited format used in spreadsheet applications
http://www.bom.gov.au/fwo/IDS60801/IDS60801.95687.axf

JavaScript Object Notation format (JSON) in row-major order
http://www.bom.gov.au/fwo/IDS60801/IDS60801.95687.json